<?xml version="1.0" encoding="UTF-8" standalone="no" ?>
<gpx xmlns="http://www.topografix.com/GPX/1/1" xmlns:xsi="http://www.w3.org/2001/XMLSchema-instance" xsi:schemaLocation="http://www.topografix.com/GPX/1/1 http://www.topografix.com/GPX/1/1/gpx.xsd" version="1.1" creator="VisuGPX - https://www.visugpx.com">
  <metadata>
    <name>Canal du Rhône à Sète, de Frontignan à Palavas - 20544 - UtagawaVTT.com</name>
  </metadata>
  <trk>
    <name><![CDATA[Canal du Rhône à Sète, de Frontignan à Palavas - 20544 - UtagawaVTT.com]]></name>
    <trkseg>
      <trkpt lat="43.44957" lon="3.7026">
        <ele>46.624439</ele>
        <time>2019-02-26T14:13:39Z</time>
      </trkpt>
      <trkpt lat="43.44954" lon="3.70269">
        <ele>46.848988</ele>
        <time>2019-02-26T14:13:43Z</time>
      </trkpt>
      <trkpt lat="43.4494" lon="3.70297">
        <ele>47.470001</ele>
        <time>2019-02-26T14:13:49Z</time>
      </trkpt>
      <trkpt lat="43.4487" lon="3.7039">
        <ele>48.250496</ele>
        <time>2019-02-26T14:14:11Z</time>
      </trkpt>
      <trkpt lat="43.44641" lon="3.70697">
        <ele>39.527176</ele>
        <time>2019-02-26T14:15:01Z</time>
      </trkpt>
      <trkpt lat="43.44539" lon="3.70837">
        <ele>38.232498</ele>
        <time>2019-02-26T14:15:24Z</time>
      </trkpt>
      <trkpt lat="43.44497" lon="3.70881">
        <ele>38.033749</ele>
        <time>2019-02-26T14:15:36Z</time>
      </trkpt>
      <trkpt lat="43.44513" lon="3.7094">
        <ele>39.362499</ele>
        <time>2019-02-26T14:15:44Z</time>
      </trkpt>
      <trkpt lat="43.44535" lon="3.70969">
        <ele>40.290756</ele>
        <time>2019-02-26T14:15:49Z</time>
      </trkpt>
      <trkpt lat="43.44608" lon="3.71161">
        <ele>42.712502</ele>
        <time>2019-02-26T14:16:13Z</time>
      </trkpt>
      <trkpt lat="43.44613" lon="3.71171">
        <ele>42.747501</ele>
        <time>2019-02-26T14:16:15Z</time>
      </trkpt>
      <trkpt lat="43.44617" lon="3.71195">
        <ele>42.244881</ele>
        <time>2019-02-26T14:16:21Z</time>
      </trkpt>
      <trkpt lat="43.44608" lon="3.71218">
        <ele>41.032749</ele>
        <time>2019-02-26T14:16:34Z</time>
      </trkpt>
      <trkpt lat="43.44609" lon="3.71227">
        <ele>40.774048</ele>
        <time>2019-02-26T14:16:51Z</time>
      </trkpt>
      <trkpt lat="43.44654" lon="3.71263">
        <ele>39.857498</ele>
        <time>2019-02-26T14:17:02Z</time>
      </trkpt>
      <trkpt lat="43.4468" lon="3.71232">
        <ele>42.709892</ele>
        <time>2019-02-26T14:17:09Z</time>
      </trkpt>
      <trkpt lat="43.44722" lon="3.71222">
        <ele>45.405411</ele>
        <time>2019-02-26T14:17:19Z</time>
      </trkpt>
      <trkpt lat="43.44746" lon="3.71232">
        <ele>45.671841</ele>
        <time>2019-02-26T14:17:25Z</time>
      </trkpt>
      <trkpt lat="43.44754" lon="3.71237">
        <ele>45.688595</ele>
        <time>2019-02-26T14:17:27Z</time>
      </trkpt>
      <trkpt lat="43.44762" lon="3.71241">
        <ele>45.823032</ele>
        <time>2019-02-26T14:17:29Z</time>
      </trkpt>
      <trkpt lat="43.44779" lon="3.71247">
        <ele>46.282375</ele>
        <time>2019-02-26T14:17:33Z</time>
      </trkpt>
      <trkpt lat="43.44791" lon="3.71254">
        <ele>46.498257</ele>
        <time>2019-02-26T14:17:36Z</time>
      </trkpt>
      <trkpt lat="43.44873" lon="3.71364">
        <ele>47.911251</ele>
        <time>2019-02-26T14:18:02Z</time>
      </trkpt>
      <trkpt lat="43.44924" lon="3.7141">
        <ele>49.106251</ele>
        <time>2019-02-26T14:18:15Z</time>
      </trkpt>
      <trkpt lat="43.4494" lon="3.71419">
        <ele>49.368752</ele>
        <time>2019-02-26T14:18:19Z</time>
      </trkpt>
      <trkpt lat="43.44976" lon="3.71456">
        <ele>49.4025</ele>
        <time>2019-02-26T14:18:30Z</time>
      </trkpt>
      <trkpt lat="43.45052" lon="3.71549">
        <ele>51.661251</ele>
        <time>2019-02-26T14:18:54Z</time>
      </trkpt>
      <trkpt lat="43.45096" lon="3.71582">
        <ele>53.868687</ele>
        <time>2019-02-26T14:19:08Z</time>
      </trkpt>
      <trkpt lat="43.45144" lon="3.71614">
        <ele>55.973751</ele>
        <time>2019-02-26T14:19:25Z</time>
      </trkpt>
      <trkpt lat="43.45161" lon="3.7162">
        <ele>56.839581</ele>
        <time>2019-02-26T14:19:32Z</time>
      </trkpt>
      <trkpt lat="43.45172" lon="3.71629">
        <ele>57.199043</ele>
        <time>2019-02-26T14:19:38Z</time>
      </trkpt>
      <trkpt lat="43.45214" lon="3.71683">
        <ele>59.198132</ele>
        <time>2019-02-26T14:19:56Z</time>
      </trkpt>
      <trkpt lat="43.45256" lon="3.71728">
        <ele>62.154751</ele>
        <time>2019-02-26T14:20:14Z</time>
      </trkpt>
      <trkpt lat="43.45268" lon="3.71743">
        <ele>62.868923</ele>
        <time>2019-02-26T14:20:19Z</time>
      </trkpt>
      <trkpt lat="43.45288" lon="3.71747">
        <ele>64.34536</ele>
        <time>2019-02-26T14:20:25Z</time>
      </trkpt>
      <trkpt lat="43.45354" lon="3.71791">
        <ele>64.305046</ele>
        <time>2019-02-26T14:20:45Z</time>
      </trkpt>
      <trkpt lat="43.4538" lon="3.71804">
        <ele>66.812172</ele>
        <time>2019-02-26T14:20:51Z</time>
      </trkpt>
      <trkpt lat="43.45386" lon="3.71839">
        <ele>69.449997</ele>
        <time>2019-02-26T14:20:58Z</time>
      </trkpt>
      <trkpt lat="43.45385" lon="3.71899">
        <ele>68.943398</ele>
        <time>2019-02-26T14:21:12Z</time>
      </trkpt>
      <trkpt lat="43.45387" lon="3.71907">
        <ele>68.84742</ele>
        <time>2019-02-26T14:21:14Z</time>
      </trkpt>
      <trkpt lat="43.45414" lon="3.71958">
        <ele>69.370461</ele>
        <time>2019-02-26T14:21:28Z</time>
      </trkpt>
      <trkpt lat="43.4545" lon="3.71975">
        <ele>72.753761</ele>
        <time>2019-02-26T14:21:43Z</time>
      </trkpt>
      <trkpt lat="43.45471" lon="3.71982">
        <ele>74.694</ele>
        <time>2019-02-26T14:21:52Z</time>
      </trkpt>
      <trkpt lat="43.45478" lon="3.71997">
        <ele>74.676376</ele>
        <time>2019-02-26T14:21:57Z</time>
      </trkpt>
      <trkpt lat="43.45479" lon="3.72026">
        <ele>72.621704</ele>
        <time>2019-02-26T14:22:02Z</time>
      </trkpt>
      <trkpt lat="43.45463" lon="3.72102">
        <ele>66.6325</ele>
        <time>2019-02-26T14:22:12Z</time>
      </trkpt>
      <trkpt lat="43.45462" lon="3.72151">
        <ele>65.047478</ele>
        <time>2019-02-26T14:22:19Z</time>
      </trkpt>
      <trkpt lat="43.45453" lon="3.72182">
        <ele>63.481617</ele>
        <time>2019-02-26T14:22:23Z</time>
      </trkpt>
      <trkpt lat="43.45442" lon="3.72226">
        <ele>61.190426</ele>
        <time>2019-02-26T14:22:28Z</time>
      </trkpt>
      <trkpt lat="43.45463" lon="3.72355">
        <ele>59.337692</ele>
        <time>2019-02-26T14:22:42Z</time>
      </trkpt>
      <trkpt lat="43.45493" lon="3.72437">
        <ele>60.245743</ele>
        <time>2019-02-26T14:22:55Z</time>
      </trkpt>
      <trkpt lat="43.45488" lon="3.72472">
        <ele>58.7575</ele>
        <time>2019-02-26T14:22:59Z</time>
      </trkpt>
      <trkpt lat="43.45477" lon="3.72506">
        <ele>56.970001</ele>
        <time>2019-02-26T14:23:03Z</time>
      </trkpt>
      <trkpt lat="43.45475" lon="3.72525">
        <ele>56.139687</ele>
        <time>2019-02-26T14:23:05Z</time>
      </trkpt>
      <trkpt lat="43.4549" lon="3.72601">
        <ele>54.740002</ele>
        <time>2019-02-26T14:23:14Z</time>
      </trkpt>
      <trkpt lat="43.45484" lon="3.72681">
        <ele>55.627499</ele>
        <time>2019-02-26T14:23:24Z</time>
      </trkpt>
      <trkpt lat="43.45477" lon="3.72709">
        <ele>55.991249</ele>
        <time>2019-02-26T14:23:28Z</time>
      </trkpt>
      <trkpt lat="43.4547" lon="3.72727">
        <ele>55.977501</ele>
        <time>2019-02-26T14:23:31Z</time>
      </trkpt>
      <trkpt lat="43.45455" lon="3.72763">
        <ele>55.473751</ele>
        <time>2019-02-26T14:23:38Z</time>
      </trkpt>
      <trkpt lat="43.45447" lon="3.72792">
        <ele>54.513752</ele>
        <time>2019-02-26T14:23:46Z</time>
      </trkpt>
      <trkpt lat="43.45447" lon="3.72818">
        <ele>54.099827</ele>
        <time>2019-02-26T14:23:54Z</time>
      </trkpt>
      <trkpt lat="43.45435" lon="3.72856">
        <ele>53.079361</ele>
        <time>2019-02-26T14:24:00Z</time>
      </trkpt>
      <trkpt lat="43.45407" lon="3.72926">
        <ele>52.535</ele>
        <time>2019-02-26T14:24:09Z</time>
      </trkpt>
      <trkpt lat="43.45397" lon="3.72985">
        <ele>52.017094</ele>
        <time>2019-02-26T14:24:18Z</time>
      </trkpt>
      <trkpt lat="43.45352" lon="3.73117">
        <ele>43.029202</ele>
        <time>2019-02-26T14:24:36Z</time>
      </trkpt>
      <trkpt lat="43.45348" lon="3.73161">
        <ele>41.038002</ele>
        <time>2019-02-26T14:24:40Z</time>
      </trkpt>
      <trkpt lat="43.45339" lon="3.73197">
        <ele>39.547188</ele>
        <time>2019-02-26T14:24:43Z</time>
      </trkpt>
      <trkpt lat="43.45311" lon="3.73286">
        <ele>37.162498</ele>
        <time>2019-02-26T14:24:51Z</time>
      </trkpt>
      <trkpt lat="43.453" lon="3.73314">
        <ele>36.299999</ele>
        <time>2019-02-26T14:24:54Z</time>
      </trkpt>
      <trkpt lat="43.45303" lon="3.73388">
        <ele>34.002499</ele>
        <time>2019-02-26T14:25:02Z</time>
      </trkpt>
      <trkpt lat="43.45288" lon="3.73411">
        <ele>32.91</ele>
        <time>2019-02-26T14:25:05Z</time>
      </trkpt>
      <trkpt lat="43.45237" lon="3.73461">
        <ele>31.323187</ele>
        <time>2019-02-26T14:25:13Z</time>
      </trkpt>
      <trkpt lat="43.45216" lon="3.73506">
        <ele>30.171249</ele>
        <time>2019-02-26T14:25:18Z</time>
      </trkpt>
      <trkpt lat="43.45178" lon="3.73616">
        <ele>24.9163</ele>
        <time>2019-02-26T14:25:29Z</time>
      </trkpt>
      <trkpt lat="43.45147" lon="3.73693">
        <ele>22.421112</ele>
        <time>2019-02-26T14:25:38Z</time>
      </trkpt>
      <trkpt lat="43.4514" lon="3.73719">
        <ele>21.763624</ele>
        <time>2019-02-26T14:25:41Z</time>
      </trkpt>
      <trkpt lat="43.4509" lon="3.73807">
        <ele>18.283922</ele>
        <time>2019-02-26T14:25:52Z</time>
      </trkpt>
      <trkpt lat="43.45074" lon="3.73833">
        <ele>17.236212</ele>
        <time>2019-02-26T14:25:56Z</time>
      </trkpt>
      <trkpt lat="43.45068" lon="3.73845">
        <ele>16.794062</ele>
        <time>2019-02-26T14:25:58Z</time>
      </trkpt>
      <trkpt lat="43.45061" lon="3.73857">
        <ele>16.26</ele>
        <time>2019-02-26T14:26:00Z</time>
      </trkpt>
      <trkpt lat="43.4501" lon="3.73958">
        <ele>13.41275</ele>
        <time>2019-02-26T14:26:14Z</time>
      </trkpt>
      <trkpt lat="43.4499" lon="3.74018">
        <ele>12.202518</ele>
        <time>2019-02-26T14:26:22Z</time>
      </trkpt>
      <trkpt lat="43.44947" lon="3.74204">
        <ele>9.995</ele>
        <time>2019-02-26T14:26:47Z</time>
      </trkpt>
      <trkpt lat="43.44925" lon="3.74294">
        <ele>9</ele>
        <time>2019-02-26T14:26:58Z</time>
      </trkpt>
      <trkpt lat="43.44911" lon="3.74323">
        <ele>9</ele>
        <time>2019-02-26T14:27:03Z</time>
      </trkpt>
      <trkpt lat="43.44895" lon="3.74337">
        <ele>9</ele>
        <time>2019-02-26T14:27:07Z</time>
      </trkpt>
      <trkpt lat="43.44895" lon="3.74386">
        <ele>9.602447</ele>
        <time>2019-02-26T14:27:15Z</time>
      </trkpt>
      <trkpt lat="43.44939" lon="3.74493">
        <ele>10.91</ele>
        <time>2019-02-26T14:27:31Z</time>
      </trkpt>
      <trkpt lat="43.44972" lon="3.74588">
        <ele>12.273475</ele>
        <time>2019-02-26T14:27:45Z</time>
      </trkpt>
      <trkpt lat="43.4498" lon="3.74605">
        <ele>12.706688</ele>
        <time>2019-02-26T14:27:48Z</time>
      </trkpt>
      <trkpt lat="43.45038" lon="3.74768">
        <ele>13.3625</ele>
        <time>2019-02-26T14:28:12Z</time>
      </trkpt>
      <trkpt lat="43.45061" lon="3.7482">
        <ele>13.06625</ele>
        <time>2019-02-26T14:28:20Z</time>
      </trkpt>
      <trkpt lat="43.45071" lon="3.74847">
        <ele>12.8625</ele>
        <time>2019-02-26T14:28:25Z</time>
      </trkpt>
      <trkpt lat="43.45067" lon="3.74875">
        <ele>12.3275</ele>
        <time>2019-02-26T14:28:29Z</time>
      </trkpt>
      <trkpt lat="43.44991" lon="3.74975">
        <ele>9.6225</ele>
        <time>2019-02-26T14:28:45Z</time>
      </trkpt>
      <trkpt lat="43.44906" lon="3.75101">
        <ele>5.73</ele>
        <time>2019-02-26T14:29:07Z</time>
      </trkpt>
      <trkpt lat="43.44894" lon="3.75112">
        <ele>5.55875</ele>
        <time>2019-02-26T14:29:10Z</time>
      </trkpt>
      <trkpt lat="43.44871" lon="3.75144">
        <ele>5.013419</ele>
        <time>2019-02-26T14:29:16Z</time>
      </trkpt>
      <trkpt lat="43.44768" lon="3.75277">
        <ele>4</ele>
        <time>2019-02-26T14:29:39Z</time>
      </trkpt>
      <trkpt lat="43.4469" lon="3.7537">
        <ele>3.176094</ele>
        <time>2019-02-26T14:29:58Z</time>
      </trkpt>
      <trkpt lat="43.44689" lon="3.75394">
        <ele>3</ele>
        <time>2019-02-26T14:30:03Z</time>
      </trkpt>
      <trkpt lat="43.44707" lon="3.75443">
        <ele>3.001484</ele>
        <time>2019-02-26T14:30:13Z</time>
      </trkpt>
      <trkpt lat="43.4472" lon="3.75469">
        <ele>3</ele>
        <time>2019-02-26T14:30:19Z</time>
      </trkpt>
      <trkpt lat="43.44731" lon="3.75487">
        <ele>3</ele>
        <time>2019-02-26T14:30:23Z</time>
      </trkpt>
      <trkpt lat="43.44737" lon="3.75494">
        <ele>3</ele>
        <time>2019-02-26T14:30:25Z</time>
      </trkpt>
      <trkpt lat="43.4475" lon="3.75524">
        <ele>3</ele>
        <time>2019-02-26T14:30:31Z</time>
      </trkpt>
      <trkpt lat="43.44723" lon="3.75664">
        <ele>3</ele>
        <time>2019-02-26T14:30:54Z</time>
      </trkpt>
      <trkpt lat="43.44696" lon="3.75739">
        <ele>2.845</ele>
        <time>2019-02-26T14:31:12Z</time>
      </trkpt>
      <trkpt lat="43.44687" lon="3.75773">
        <ele>2.505156</ele>
        <time>2019-02-26T14:31:16Z</time>
      </trkpt>
      <trkpt lat="43.44651" lon="3.75823">
        <ele>2</ele>
        <time>2019-02-26T14:31:29Z</time>
      </trkpt>
      <trkpt lat="43.44565" lon="3.75825">
        <ele>1.9575</ele>
        <time>2019-02-26T14:31:47Z</time>
      </trkpt>
      <trkpt lat="43.44516" lon="3.75823">
        <ele>1</ele>
        <time>2019-02-26T14:31:56Z</time>
      </trkpt>
      <trkpt lat="43.44467" lon="3.75827">
        <ele>0.953509</ele>
        <time>2019-02-26T14:32:06Z</time>
      </trkpt>
      <trkpt lat="43.44448" lon="3.75834">
        <ele>0.792794</ele>
        <time>2019-02-26T14:32:10Z</time>
      </trkpt>
      <trkpt lat="43.44428" lon="3.75855">
        <ele>0.288225</ele>
        <time>2019-02-26T14:32:14Z</time>
      </trkpt>
      <trkpt lat="43.44419" lon="3.7587">
        <ele>0.055663</ele>
        <time>2019-02-26T14:32:16Z</time>
      </trkpt>
      <trkpt lat="43.44399" lon="3.75886">
        <ele>3.5</ele>
        <time>2019-02-26T14:32:20Z</time>
      </trkpt>
      <trkpt lat="43.44324" lon="3.75868">
        <ele>1</ele>
        <time>2019-02-26T14:32:31Z</time>
      </trkpt>
      <trkpt lat="43.44296" lon="3.75879">
        <ele>1</ele>
        <time>2019-02-26T14:32:37Z</time>
      </trkpt>
      <trkpt lat="43.44277" lon="3.75883">
        <ele>1</ele>
        <time>2019-02-26T14:32:40Z</time>
      </trkpt>
      <trkpt lat="43.44237" lon="3.75894">
        <ele>1</ele>
        <time>2019-02-26T14:32:46Z</time>
      </trkpt>
      <trkpt lat="43.44206" lon="3.75899">
        <ele>1</ele>
        <time>2019-02-26T14:32:51Z</time>
      </trkpt>
      <trkpt lat="43.44036" lon="3.75944">
        <ele>1</ele>
        <time>2019-02-26T14:33:13Z</time>
      </trkpt>
      <trkpt lat="43.4396" lon="3.75976">
        <ele>1</ele>
        <time>2019-02-26T14:33:26Z</time>
      </trkpt>
      <trkpt lat="43.43955" lon="3.75973">
        <ele>1</ele>
        <time>2019-02-26T14:33:28Z</time>
      </trkpt>
      <trkpt lat="43.43944" lon="3.75969">
        <ele>1</ele>
        <time>2019-02-26T14:33:33Z</time>
      </trkpt>
      <trkpt lat="43.43827" lon="3.76011">
        <ele>0.779387</ele>
        <time>2019-02-26T14:33:56Z</time>
      </trkpt>
      <trkpt lat="43.43777" lon="3.76051">
        <ele>1</ele>
        <time>2019-02-26T14:34:08Z</time>
      </trkpt>
      <trkpt lat="43.43752" lon="3.76052">
        <ele>0.95725</ele>
        <time>2019-02-26T14:34:14Z</time>
      </trkpt>
      <trkpt lat="43.43746" lon="3.76048">
        <ele>0.819041</ele>
        <time>2019-02-26T14:34:16Z</time>
      </trkpt>
      <trkpt lat="43.43718" lon="3.76096">
        <ele>0.896406</ele>
        <time>2019-02-26T14:34:36Z</time>
      </trkpt>
      <trkpt lat="43.43718" lon="3.76109">
        <ele>1</ele>
        <time>2019-02-26T14:34:42Z</time>
      </trkpt>
      <trkpt lat="43.43701" lon="3.76191">
        <ele>0.57625</ele>
        <time>2019-02-26T14:35:00Z</time>
      </trkpt>
      <trkpt lat="43.43655" lon="3.76273">
        <ele>4</ele>
        <time>2019-02-26T14:35:19Z</time>
      </trkpt>
      <trkpt lat="43.43648" lon="3.76282">
        <ele>4.4</ele>
        <time>2019-02-26T14:35:24Z</time>
      </trkpt>
      <trkpt lat="43.43617" lon="3.76331">
        <ele>3.2</ele>
        <time>2019-02-26T14:35:34Z</time>
      </trkpt>
      <trkpt lat="43.43591" lon="3.7633">
        <ele>0.1547</ele>
        <time>2019-02-26T14:35:39Z</time>
      </trkpt>
      <trkpt lat="43.43588" lon="3.76307">
        <ele>0.42075</ele>
        <time>2019-02-26T14:35:42Z</time>
      </trkpt>
      <trkpt lat="43.43614" lon="3.76194">
        <ele>0.535291</ele>
        <time>2019-02-26T14:36:02Z</time>
      </trkpt>
      <trkpt lat="43.4362" lon="3.76181">
        <ele>0.705</ele>
        <time>2019-02-26T14:36:07Z</time>
      </trkpt>
      <trkpt lat="43.4363" lon="3.76185">
        <ele>0.645</ele>
        <time>2019-02-26T14:36:12Z</time>
      </trkpt>
      <trkpt lat="43.43654" lon="3.76212">
        <ele>0.22625</ele>
        <time>2019-02-26T14:36:20Z</time>
      </trkpt>
      <trkpt lat="43.43677" lon="3.76216">
        <ele>0.17125</ele>
        <time>2019-02-26T14:36:25Z</time>
      </trkpt>
      <trkpt lat="43.43699" lon="3.76244">
        <ele>2</ele>
        <time>2019-02-26T14:36:32Z</time>
      </trkpt>
      <trkpt lat="43.43715" lon="3.76282">
        <ele>1.1</ele>
        <time>2019-02-26T14:36:39Z</time>
      </trkpt>
      <trkpt lat="43.43725" lon="3.76292">
        <ele>1.4</ele>
        <time>2019-02-26T14:36:42Z</time>
      </trkpt>
      <trkpt lat="43.43735" lon="3.76305">
        <ele>1.5</ele>
        <time>2019-02-26T14:36:45Z</time>
      </trkpt>
      <trkpt lat="43.44006" lon="3.7659">
        <ele>1.8</ele>
        <time>2019-02-26T14:37:36Z</time>
      </trkpt>
      <trkpt lat="43.44076" lon="3.76662">
        <ele>0.34</ele>
        <time>2019-02-26T14:37:48Z</time>
      </trkpt>
      <trkpt lat="43.44099" lon="3.76688">
        <ele>0.583313</ele>
        <time>2019-02-26T14:37:52Z</time>
      </trkpt>
      <trkpt lat="43.44205" lon="3.7682">
        <ele>1.5</ele>
        <time>2019-02-26T14:38:10Z</time>
      </trkpt>
      <trkpt lat="43.44326" lon="3.77048">
        <ele>2</ele>
        <time>2019-02-26T14:38:36Z</time>
      </trkpt>
      <trkpt lat="43.44371" lon="3.77181">
        <ele>2.5</ele>
        <time>2019-02-26T14:38:50Z</time>
      </trkpt>
      <trkpt lat="43.4442" lon="3.77406">
        <ele>2</ele>
        <time>2019-02-26T14:39:14Z</time>
      </trkpt>
      <trkpt lat="43.44434" lon="3.7763">
        <time>2019-02-26T14:39:38Z</time>
      </trkpt>
      <trkpt lat="43.44438" lon="3.77758">
        <time>2019-02-26T14:39:55Z</time>
      </trkpt>
      <trkpt lat="43.44436" lon="3.77774">
        <time>2019-02-26T14:39:57Z</time>
      </trkpt>
      <trkpt lat="43.4443" lon="3.77979">
        <time>2019-02-26T14:40:20Z</time>
      </trkpt>
      <trkpt lat="43.44433" lon="3.78035">
        <ele>1</ele>
        <time>2019-02-26T14:40:26Z</time>
      </trkpt>
      <trkpt lat="43.44445" lon="3.78068">
        <ele>1</ele>
        <time>2019-02-26T14:40:30Z</time>
      </trkpt>
      <trkpt lat="43.44561" lon="3.78305">
        <ele>1</ele>
        <time>2019-02-26T14:41:00Z</time>
      </trkpt>
      <trkpt lat="43.44764" lon="3.78715">
        <ele>1</ele>
        <time>2019-02-26T14:41:49Z</time>
      </trkpt>
      <trkpt lat="43.44773" lon="3.78731">
        <ele>1</ele>
        <time>2019-02-26T14:41:51Z</time>
      </trkpt>
      <trkpt lat="43.44869" lon="3.7893">
        <ele>1</ele>
        <time>2019-02-26T14:42:14Z</time>
      </trkpt>
      <trkpt lat="43.44996" lon="3.79188">
        <ele>1</ele>
        <time>2019-02-26T14:42:43Z</time>
      </trkpt>
      <trkpt lat="43.4503" lon="3.79257">
        <ele>1</ele>
        <time>2019-02-26T14:42:59Z</time>
      </trkpt>
      <trkpt lat="43.45071" lon="3.79337">
        <ele>1</ele>
        <time>2019-02-26T14:43:11Z</time>
      </trkpt>
      <trkpt lat="43.45118" lon="3.79433">
        <ele>1</ele>
        <time>2019-02-26T14:43:26Z</time>
      </trkpt>
      <trkpt lat="43.45152" lon="3.79495">
        <ele>1</ele>
        <time>2019-02-26T14:46:46Z</time>
      </trkpt>
      <trkpt lat="43.45184" lon="3.79573">
        <ele>1</ele>
        <time>2019-02-26T14:47:15Z</time>
      </trkpt>
      <trkpt lat="43.45246" lon="3.79684">
        <ele>1</ele>
        <time>2019-02-26T14:47:35Z</time>
      </trkpt>
      <trkpt lat="43.45326" lon="3.79805">
        <ele>1</ele>
        <time>2019-02-26T14:47:53Z</time>
      </trkpt>
      <trkpt lat="43.45345" lon="3.79843">
        <ele>1</ele>
        <time>2019-02-26T14:47:58Z</time>
      </trkpt>
      <trkpt lat="43.45425" lon="3.80023">
        <ele>1.8</ele>
        <time>2019-02-26T14:48:19Z</time>
      </trkpt>
      <trkpt lat="43.45511" lon="3.80271">
        <ele>1.2</ele>
        <time>2019-02-26T14:48:46Z</time>
      </trkpt>
      <trkpt lat="43.45519" lon="3.80288">
        <ele>1</ele>
        <time>2019-02-26T14:48:48Z</time>
      </trkpt>
      <trkpt lat="43.45544" lon="3.80362">
        <ele>1</ele>
        <time>2019-02-26T14:48:56Z</time>
      </trkpt>
      <trkpt lat="43.45612" lon="3.80564">
        <ele>1.3</ele>
        <time>2019-02-26T14:49:17Z</time>
      </trkpt>
      <trkpt lat="43.45687" lon="3.80783">
        <ele>1</ele>
        <time>2019-02-26T14:49:39Z</time>
      </trkpt>
      <trkpt lat="43.45785" lon="3.8105">
        <ele>1.8</ele>
        <time>2019-02-26T14:50:06Z</time>
      </trkpt>
      <trkpt lat="43.45875" lon="3.81244">
        <ele>1</ele>
        <time>2019-02-26T14:50:27Z</time>
      </trkpt>
      <trkpt lat="43.45899" lon="3.81271">
        <ele>1.5</ele>
        <time>2019-02-26T14:50:31Z</time>
      </trkpt>
      <trkpt lat="43.46067" lon="3.81405">
        <ele>1</ele>
        <time>2019-02-26T14:50:56Z</time>
      </trkpt>
      <trkpt lat="43.46192" lon="3.81521">
        <ele>1</ele>
        <time>2019-02-26T14:51:15Z</time>
      </trkpt>
      <trkpt lat="43.46316" lon="3.81668">
        <ele>0.042863</ele>
        <time>2019-02-26T14:51:37Z</time>
      </trkpt>
      <trkpt lat="43.46427" lon="3.81806">
        <ele>0.805</ele>
        <time>2019-02-26T14:52:00Z</time>
      </trkpt>
      <trkpt lat="43.46521" lon="3.81892">
        <ele>1.9</ele>
        <time>2019-02-26T14:52:16Z</time>
      </trkpt>
      <trkpt lat="43.46585" lon="3.8196">
        <ele>1</ele>
        <time>2019-02-26T14:52:27Z</time>
      </trkpt>
      <trkpt lat="43.46812" lon="3.82187">
        <ele>1</ele>
        <time>2019-02-26T14:53:02Z</time>
      </trkpt>
      <trkpt lat="43.47001" lon="3.82392">
        <ele>1</ele>
        <time>2019-02-26T14:53:31Z</time>
      </trkpt>
      <trkpt lat="43.47016" lon="3.82404">
        <ele>1</ele>
        <time>2019-02-26T14:53:33Z</time>
      </trkpt>
      <trkpt lat="43.47326" lon="3.82752">
        <ele>1.1</ele>
        <time>2019-02-26T14:54:21Z</time>
      </trkpt>
      <trkpt lat="43.47471" lon="3.82905">
        <ele>0.175313</ele>
        <time>2019-02-26T14:54:44Z</time>
      </trkpt>
      <trkpt lat="43.47482" lon="3.8292">
        <ele>0.006984</ele>
        <time>2019-02-26T14:54:46Z</time>
      </trkpt>
      <trkpt lat="43.47736" lon="3.83196">
        <ele>1</ele>
        <time>2019-02-26T14:55:26Z</time>
      </trkpt>
      <trkpt lat="43.47863" lon="3.83335">
        <ele>1</ele>
        <time>2019-02-26T14:55:46Z</time>
      </trkpt>
      <trkpt lat="43.47979" lon="3.83458">
        <ele>1</ele>
        <time>2019-02-26T14:56:05Z</time>
      </trkpt>
      <trkpt lat="43.48275" lon="3.83787">
        <ele>1</ele>
        <time>2019-02-26T14:56:54Z</time>
      </trkpt>
      <trkpt lat="43.48403" lon="3.83936">
        <ele>1</ele>
        <time>2019-02-26T14:57:15Z</time>
      </trkpt>
      <trkpt lat="43.48563" lon="3.84111">
        <ele>1</ele>
        <time>2019-02-26T14:57:41Z</time>
      </trkpt>
      <trkpt lat="43.48714" lon="3.84279">
        <ele>1</ele>
        <time>2019-02-26T14:58:06Z</time>
      </trkpt>
      <trkpt lat="43.49043" lon="3.84642">
        <time>2019-02-26T14:59:03Z</time>
      </trkpt>
      <trkpt lat="43.49167" lon="3.84772">
        <ele>1</ele>
        <time>2019-02-26T14:59:26Z</time>
      </trkpt>
      <trkpt lat="43.49189" lon="3.84795">
        <ele>1</ele>
        <time>2019-02-26T14:59:30Z</time>
      </trkpt>
      <trkpt lat="43.49426" lon="3.85106">
        <time>2019-02-26T15:00:12Z</time>
      </trkpt>
      <trkpt lat="43.49451" lon="3.85133">
        <ele>1</ele>
        <time>2019-02-26T15:00:16Z</time>
      </trkpt>
      <trkpt lat="43.49466" lon="3.85156">
        <ele>1</ele>
        <time>2019-02-26T15:00:19Z</time>
      </trkpt>
      <trkpt lat="43.49482" lon="3.85178">
        <ele>1</ele>
        <time>2019-02-26T15:00:22Z</time>
      </trkpt>
      <trkpt lat="43.49495" lon="3.85189">
        <ele>1</ele>
        <time>2019-02-26T15:00:24Z</time>
      </trkpt>
      <trkpt lat="43.49594" lon="3.85323">
        <ele>1</ele>
        <time>2019-02-26T15:00:42Z</time>
      </trkpt>
      <trkpt lat="43.49943" lon="3.85779">
        <ele>1</ele>
        <time>2019-02-26T15:01:43Z</time>
      </trkpt>
      <trkpt lat="43.50066" lon="3.85935">
        <ele>1</ele>
        <time>2019-02-26T15:02:05Z</time>
      </trkpt>
      <trkpt lat="43.5013" lon="3.86018">
        <ele>1</ele>
        <time>2019-02-26T15:02:17Z</time>
      </trkpt>
      <trkpt lat="43.50191" lon="3.86101">
        <ele>1</ele>
        <time>2019-02-26T15:02:29Z</time>
      </trkpt>
      <trkpt lat="43.50202" lon="3.86113">
        <ele>1</ele>
        <time>2019-02-26T15:02:31Z</time>
      </trkpt>
      <trkpt lat="43.50347" lon="3.86298">
        <ele>1</ele>
        <time>2019-02-26T15:02:58Z</time>
      </trkpt>
      <trkpt lat="43.50427" lon="3.864">
        <ele>1</ele>
        <time>2019-02-26T15:03:16Z</time>
      </trkpt>
      <trkpt lat="43.50813" lon="3.86901">
        <ele>1</ele>
        <time>2019-02-26T15:04:39Z</time>
      </trkpt>
      <trkpt lat="43.50862" lon="3.86968">
        <ele>1</ele>
        <time>2019-02-26T15:04:50Z</time>
      </trkpt>
      <trkpt lat="43.50935" lon="3.87059">
        <ele>1</ele>
        <time>2019-02-26T15:05:06Z</time>
      </trkpt>
      <trkpt lat="43.51204" lon="3.87411">
        <ele>1</ele>
        <time>2019-02-26T15:05:59Z</time>
      </trkpt>
      <trkpt lat="43.51329" lon="3.87572">
        <ele>1</ele>
        <time>2019-02-26T15:06:23Z</time>
      </trkpt>
      <trkpt lat="43.51408" lon="3.87676">
        <ele>1</ele>
        <time>2019-02-26T15:06:46Z</time>
      </trkpt>
      <trkpt lat="43.51449" lon="3.87741">
        <ele>1.7</ele>
        <time>2019-02-26T15:07:04Z</time>
      </trkpt>
      <trkpt lat="43.51531" lon="3.87846">
        <ele>1.5</ele>
        <time>2019-02-26T15:07:28Z</time>
      </trkpt>
      <trkpt lat="43.51561" lon="3.87892">
        <ele>1.1</ele>
        <time>2019-02-26T15:07:36Z</time>
      </trkpt>
      <trkpt lat="43.51634" lon="3.8801">
        <ele>1</ele>
        <time>2019-02-26T15:07:58Z</time>
      </trkpt>
      <trkpt lat="43.51665" lon="3.88072">
        <ele>1</ele>
        <time>2019-02-26T15:08:18Z</time>
      </trkpt>
      <trkpt lat="43.51643" lon="3.88084">
        <ele>1</ele>
        <time>2019-02-26T15:14:47Z</time>
      </trkpt>
      <trkpt lat="43.51599" lon="3.88117">
        <ele>1</ele>
        <time>2019-02-26T15:15:09Z</time>
      </trkpt>
      <trkpt lat="43.51539" lon="3.88119">
        <ele>0.40625</ele>
        <time>2019-02-26T15:15:27Z</time>
      </trkpt>
      <trkpt lat="43.51518" lon="3.88101">
        <ele>0.12625</ele>
        <time>2019-02-26T15:15:33Z</time>
      </trkpt>
      <trkpt lat="43.51463" lon="3.88048">
        <ele>0.23985</ele>
        <time>2019-02-26T15:15:49Z</time>
      </trkpt>
      <trkpt lat="43.51452" lon="3.8803">
        <ele>0.07875</ele>
        <time>2019-02-26T15:15:53Z</time>
      </trkpt>
      <trkpt lat="43.51426" lon="3.87999">
        <ele>0.333331</ele>
        <time>2019-02-26T15:16:01Z</time>
      </trkpt>
      <trkpt lat="43.51406" lon="3.87988">
        <ele>0.345</ele>
        <time>2019-02-26T15:16:06Z</time>
      </trkpt>
      <trkpt lat="43.5135" lon="3.87981">
        <ele>0.245</ele>
        <time>2019-02-26T15:16:19Z</time>
      </trkpt>
      <trkpt lat="43.51276" lon="3.88023">
        <ele>0.016909</ele>
        <time>2019-02-26T15:16:39Z</time>
      </trkpt>
      <trkpt lat="43.51232" lon="3.88057">
        <ele>0.564425</ele>
        <time>2019-02-26T15:16:51Z</time>
      </trkpt>
      <trkpt lat="43.51161" lon="3.88176">
        <ele>1.0149</ele>
        <time>2019-02-26T15:17:16Z</time>
      </trkpt>
      <trkpt lat="43.51108" lon="3.88255">
        <ele>0.542006</ele>
        <time>2019-02-26T15:17:33Z</time>
      </trkpt>
      <trkpt lat="43.51094" lon="3.88277">
        <ele>0.118387</ele>
        <time>2019-02-26T15:17:39Z</time>
      </trkpt>
      <trkpt lat="43.51093" lon="3.88283">
        <ele>0.061738</ele>
        <time>2019-02-26T15:17:44Z</time>
      </trkpt>
      <trkpt lat="43.51088" lon="3.88287">
        <ele>1</ele>
        <time>2019-02-26T15:17:49Z</time>
      </trkpt>
      <trkpt lat="43.51042" lon="3.88293">
        <ele>1</ele>
        <time>2019-02-26T15:18:04Z</time>
      </trkpt>
      <trkpt lat="43.5095" lon="3.88278">
        <time>2019-02-26T15:18:24Z</time>
      </trkpt>
      <trkpt lat="43.50895" lon="3.88268">
        <ele>1</ele>
        <time>2019-02-26T15:18:36Z</time>
      </trkpt>
      <trkpt lat="43.50882" lon="3.88269">
        <ele>1</ele>
        <time>2019-02-26T15:18:39Z</time>
      </trkpt>
      <trkpt lat="43.50855" lon="3.88267">
        <ele>0.249403</ele>
        <time>2019-02-26T15:18:45Z</time>
      </trkpt>
      <trkpt lat="43.50748" lon="3.88332">
        <ele>0.514</ele>
        <time>2019-02-26T15:19:09Z</time>
      </trkpt>
      <trkpt lat="43.50675" lon="3.88416">
        <ele>0.555344</ele>
        <time>2019-02-26T15:19:33Z</time>
      </trkpt>
      <trkpt lat="43.50655" lon="3.88453">
        <ele>0.6675</ele>
        <time>2019-02-26T15:25:31Z</time>
      </trkpt>
      <trkpt lat="43.50764" lon="3.88657">
        <ele>0.45125</ele>
        <time>2019-02-26T15:26:14Z</time>
      </trkpt>
      <trkpt lat="43.50847" lon="3.8879">
        <ele>1</ele>
        <time>2019-02-26T15:26:37Z</time>
      </trkpt>
      <trkpt lat="43.50917" lon="3.88931">
        <ele>2.057944</ele>
        <time>2019-02-26T15:26:59Z</time>
      </trkpt>
      <trkpt lat="43.50937" lon="3.88962">
        <ele>1.926113</ele>
        <time>2019-02-26T15:27:05Z</time>
      </trkpt>
      <trkpt lat="43.50968" lon="3.89022">
        <ele>1.855625</ele>
        <time>2019-02-26T15:27:26Z</time>
      </trkpt>
      <trkpt lat="43.5099" lon="3.89018">
        <ele>1.993775</ele>
        <time>2019-02-26T15:27:39Z</time>
      </trkpt>
      <trkpt lat="43.51079" lon="3.88872">
        <ele>1.278538</ele>
        <time>2019-02-26T15:28:49Z</time>
      </trkpt>
      <trkpt lat="43.51139" lon="3.88777">
        <ele>3.2235</ele>
        <time>2019-02-26T15:29:17Z</time>
      </trkpt>
      <trkpt lat="43.51162" lon="3.88713">
        <ele>6.3275</ele>
        <time>2019-02-26T15:29:34Z</time>
      </trkpt>
      <trkpt lat="43.51184" lon="3.8864">
        <ele>8.00875</ele>
        <time>2019-02-26T15:29:51Z</time>
      </trkpt>
      <trkpt lat="43.51205" lon="3.8853">
        <ele>9.8025</ele>
        <time>2019-02-26T15:30:14Z</time>
      </trkpt>
      <trkpt lat="43.51211" lon="3.88473">
        <ele>10</ele>
        <time>2019-02-26T15:30:32Z</time>
      </trkpt>
      <trkpt lat="43.5121" lon="3.88462">
        <ele>10</ele>
        <time>2019-02-26T15:30:37Z</time>
      </trkpt>
      <trkpt lat="43.51216" lon="3.8842">
        <ele>10.34875</ele>
        <time>2019-02-26T15:30:58Z</time>
      </trkpt>
      <trkpt lat="43.51223" lon="3.88398">
        <ele>10.844387</ele>
        <time>2019-02-26T15:31:15Z</time>
      </trkpt>
      <trkpt lat="43.51223" lon="3.88393">
        <ele>10.898125</ele>
        <time>2019-02-26T15:31:20Z</time>
      </trkpt>
      <trkpt lat="43.51212" lon="3.88442">
        <ele>10.098281</ele>
        <time>2019-02-26T15:31:40Z</time>
      </trkpt>
      <trkpt lat="43.51209" lon="3.88455">
        <ele>10.00325</ele>
        <time>2019-02-26T15:31:42Z</time>
      </trkpt>
      <trkpt lat="43.51206" lon="3.88511">
        <ele>10</ele>
        <time>2019-02-26T15:31:49Z</time>
      </trkpt>
      <trkpt lat="43.51182" lon="3.88652">
        <ele>7.785322</ele>
        <time>2019-02-26T15:32:08Z</time>
      </trkpt>
      <trkpt lat="43.51175" lon="3.88701">
        <ele>6.9925</ele>
        <time>2019-02-26T15:32:15Z</time>
      </trkpt>
      <trkpt lat="43.51164" lon="3.88742">
        <ele>5.4475</ele>
        <time>2019-02-26T15:32:21Z</time>
      </trkpt>
      <trkpt lat="43.5115" lon="3.88776">
        <ele>3.547294</ele>
        <time>2019-02-26T15:32:26Z</time>
      </trkpt>
      <trkpt lat="43.51083" lon="3.88875">
        <ele>1.160097</ele>
        <time>2019-02-26T15:32:40Z</time>
      </trkpt>
      <trkpt lat="43.51066" lon="3.88899">
        <ele>1.375</ele>
        <time>2019-02-26T15:32:44Z</time>
      </trkpt>
      <trkpt lat="43.51" lon="3.89005">
        <ele>1.818238</ele>
        <time>2019-02-26T15:33:04Z</time>
      </trkpt>
      <trkpt lat="43.5098" lon="3.89056">
        <ele>1.799406</ele>
        <time>2019-02-26T15:33:14Z</time>
      </trkpt>
      <trkpt lat="43.51051" lon="3.89208">
        <ele>1</ele>
        <time>2019-02-26T15:33:34Z</time>
      </trkpt>
      <trkpt lat="43.51121" lon="3.89353">
        <ele>1.428475</ele>
        <time>2019-02-26T15:33:52Z</time>
      </trkpt>
      <trkpt lat="43.51132" lon="3.89384">
        <ele>1</ele>
        <time>2019-02-26T15:33:56Z</time>
      </trkpt>
      <trkpt lat="43.51362" lon="3.89875">
        <ele>1</ele>
        <time>2019-02-26T15:34:54Z</time>
      </trkpt>
      <trkpt lat="43.51483" lon="3.9013">
        <ele>1</ele>
        <time>2019-02-26T15:35:25Z</time>
      </trkpt>
      <trkpt lat="43.51545" lon="3.90257">
        <ele>0.993475</ele>
        <time>2019-02-26T15:35:41Z</time>
      </trkpt>
      <trkpt lat="43.51551" lon="3.90274">
        <ele>0.957594</ele>
        <time>2019-02-26T15:35:43Z</time>
      </trkpt>
      <trkpt lat="43.51574" lon="3.90322">
        <ele>1</ele>
        <time>2019-02-26T15:35:49Z</time>
      </trkpt>
      <trkpt lat="43.51588" lon="3.90356">
        <ele>1</ele>
        <time>2019-02-26T15:35:53Z</time>
      </trkpt>
      <trkpt lat="43.51638" lon="3.90461">
        <ele>1</ele>
        <time>2019-02-26T15:36:06Z</time>
      </trkpt>
      <trkpt lat="43.51676" lon="3.90487">
        <ele>1</ele>
        <time>2019-02-26T15:36:13Z</time>
      </trkpt>
      <trkpt lat="43.5174" lon="3.90494">
        <ele>0.677869</ele>
        <time>2019-02-26T15:36:28Z</time>
      </trkpt>
      <trkpt lat="43.51756" lon="3.90518">
        <ele>0.586537</ele>
        <time>2019-02-26T15:36:36Z</time>
      </trkpt>
      <trkpt lat="43.51783" lon="3.90486">
        <ele>1</ele>
        <time>2019-02-26T15:36:47Z</time>
      </trkpt>
      <trkpt lat="43.51883" lon="3.90488">
        <ele>0.41055</ele>
        <time>2019-02-26T15:37:05Z</time>
      </trkpt>
      <trkpt lat="43.51918" lon="3.9052">
        <ele>0.098175</ele>
        <time>2019-02-26T15:37:12Z</time>
      </trkpt>
      <trkpt lat="43.51975" lon="3.90647">
        <ele>0.641994</ele>
        <time>2019-02-26T15:37:29Z</time>
      </trkpt>
      <trkpt lat="43.51977" lon="3.90689">
        <ele>0.915016</ele>
        <time>2019-02-26T15:37:34Z</time>
      </trkpt>
      <trkpt lat="43.51952" lon="3.90759">
        <ele>1</ele>
        <time>2019-02-26T15:37:43Z</time>
      </trkpt>
      <trkpt lat="43.51955" lon="3.90807">
        <ele>1</ele>
        <time>2019-02-26T15:37:49Z</time>
      </trkpt>
      <trkpt lat="43.51991" lon="3.90882">
        <ele>1</ele>
        <time>2019-02-26T15:37:59Z</time>
      </trkpt>
      <trkpt lat="43.51989" lon="3.90924">
        <ele>1</ele>
        <time>2019-02-26T15:38:04Z</time>
      </trkpt>
      <trkpt lat="43.51957" lon="3.90997">
        <ele>1</ele>
        <time>2019-02-26T15:38:14Z</time>
      </trkpt>
      <trkpt lat="43.51955" lon="3.91039">
        <ele>1</ele>
        <time>2019-02-26T15:38:19Z</time>
      </trkpt>
      <trkpt lat="43.51985" lon="3.91218">
        <ele>0.687531</ele>
        <time>2019-02-26T15:38:41Z</time>
      </trkpt>
      <trkpt lat="43.52035" lon="3.91329">
        <ele>0.964406</ele>
        <time>2019-02-26T15:39:05Z</time>
      </trkpt>
      <trkpt lat="43.52117" lon="3.91478">
        <ele>1.155</ele>
        <time>2019-02-26T15:39:30Z</time>
      </trkpt>
      <trkpt lat="43.52184" lon="3.91614">
        <ele>1</ele>
        <time>2019-02-26T15:39:53Z</time>
      </trkpt>
      <trkpt lat="43.522" lon="3.91653">
        <ele>1</ele>
        <time>2019-02-26T15:40:00Z</time>
      </trkpt>
      <trkpt lat="43.52247" lon="3.91754">
        <ele>0.1775</ele>
        <time>2019-02-26T15:40:16Z</time>
      </trkpt>
      <trkpt lat="43.52275" lon="3.9183">
        <ele>0.088594</ele>
        <time>2019-02-26T15:40:27Z</time>
      </trkpt>
      <trkpt lat="43.52314" lon="3.91957">
        <ele>0.695912</ele>
        <time>2019-02-26T15:40:44Z</time>
      </trkpt>
      <trkpt lat="43.52332" lon="3.92001">
        <ele>0.925425</ele>
        <time>2019-02-26T15:40:50Z</time>
      </trkpt>
      <trkpt lat="43.52353" lon="3.91998">
        <ele>0.880272</ele>
        <time>2019-02-26T15:40:55Z</time>
      </trkpt>
      <trkpt lat="43.52402" lon="3.91963">
        <ele>1</ele>
        <time>2019-02-26T15:41:06Z</time>
      </trkpt>
      <trkpt lat="43.52421" lon="3.91952">
        <ele>1</ele>
        <time>2019-02-26T15:41:10Z</time>
      </trkpt>
      <trkpt lat="43.52502" lon="3.91921">
        <ele>0.52625</ele>
        <time>2019-02-26T15:41:23Z</time>
      </trkpt>
      <trkpt lat="43.5263" lon="3.91967">
        <ele>0.21875</ele>
        <time>2019-02-26T15:41:42Z</time>
      </trkpt>
      <trkpt lat="43.5268" lon="3.92012">
        <ele>0.431859</ele>
        <time>2019-02-26T15:41:52Z</time>
      </trkpt>
      <trkpt lat="43.52708" lon="3.9205">
        <ele>0.44255</ele>
        <time>2019-02-26T15:42:00Z</time>
      </trkpt>
      <trkpt lat="43.52837" lon="3.92176">
        <ele>0.459787</ele>
        <time>2019-02-26T15:42:27Z</time>
      </trkpt>
      <trkpt lat="43.52921" lon="3.92261">
        <ele>0.84125</ele>
        <time>2019-02-26T15:42:45Z</time>
      </trkpt>
      <trkpt lat="43.52947" lon="3.92313">
        <ele>0.812872</ele>
        <time>2019-02-26T15:42:53Z</time>
      </trkpt>
      <trkpt lat="43.53006" lon="3.92332">
        <ele>1.85125</ele>
        <time>2019-02-26T15:43:03Z</time>
      </trkpt>
      <trkpt lat="43.53017" lon="3.92319">
        <ele>1.776828</ele>
        <time>2019-02-26T15:43:05Z</time>
      </trkpt>
      <trkpt lat="43.53031" lon="3.92272">
        <ele>1.41875</ele>
        <time>2019-02-26T15:43:12Z</time>
      </trkpt>
      <trkpt lat="43.53032" lon="3.92273">
        <ele>1.4375</ele>
        <time>2019-02-26T15:43:14Z</time>
      </trkpt>
      <trkpt lat="43.53046" lon="3.92263">
        <ele>1.5775</ele>
        <time>2019-02-26T15:43:21Z</time>
      </trkpt>
      <trkpt lat="43.53119" lon="3.92143">
        <ele>1.2025</ele>
        <time>2019-02-26T15:43:43Z</time>
      </trkpt>
      <trkpt lat="43.53284" lon="3.91897">
        <ele>0.985319</ele>
        <time>2019-02-26T15:47:08Z</time>
      </trkpt>
      <trkpt lat="43.53328" lon="3.91842">
        <ele>1</ele>
        <time>2019-02-26T15:47:25Z</time>
      </trkpt>
      <trkpt lat="43.53337" lon="3.91816">
        <ele>1.039419</ele>
        <time>2019-02-26T15:47:30Z</time>
      </trkpt>
      <trkpt lat="43.53373" lon="3.91761">
        <ele>0.609531</ele>
        <time>2019-02-26T15:47:48Z</time>
      </trkpt>
      <trkpt lat="43.53367" lon="3.9174">
        <ele>0.420269</ele>
        <time>2019-02-26T15:47:57Z</time>
      </trkpt>
      <trkpt lat="43.53357" lon="3.9169">
        <ele>0.203894</ele>
        <time>2019-02-26T15:48:13Z</time>
      </trkpt>
      <trkpt lat="43.53317" lon="3.91598">
        <ele>1</ele>
        <time>2019-02-26T15:48:33Z</time>
      </trkpt>
      <trkpt lat="43.53271" lon="3.91509">
        <ele>1</ele>
        <time>2019-02-26T15:48:54Z</time>
      </trkpt>
      <trkpt lat="43.53246" lon="3.91475">
        <ele>1</ele>
        <time>2019-02-26T15:49:03Z</time>
      </trkpt>
      <trkpt lat="43.53214" lon="3.91429">
        <ele>1</ele>
        <time>2019-02-26T15:55:47Z</time>
      </trkpt>
      <trkpt lat="43.53134" lon="3.9128">
        <ele>0.050119</ele>
        <time>2019-02-26T15:56:12Z</time>
      </trkpt>
      <trkpt lat="43.53035" lon="3.911">
        <ele>1</ele>
        <time>2019-02-26T15:56:40Z</time>
      </trkpt>
      <trkpt lat="43.52945" lon="3.9092">
        <ele>0.062803</ele>
        <time>2019-02-26T15:57:05Z</time>
      </trkpt>
      <trkpt lat="43.52891" lon="3.90818">
        <ele>2</ele>
        <time>2019-02-26T15:57:19Z</time>
      </trkpt>
      <trkpt lat="43.52879" lon="3.90798">
        <ele>1.7</ele>
        <time>2019-02-26T15:57:22Z</time>
      </trkpt>
      <trkpt lat="43.52774" lon="3.90604">
        <ele>1</ele>
        <time>2019-02-26T15:57:50Z</time>
      </trkpt>
      <trkpt lat="43.52476" lon="3.90062">
        <ele>1.2</ele>
        <time>2019-02-26T15:59:27Z</time>
      </trkpt>
      <trkpt lat="43.52407" lon="3.89938">
        <ele>1</ele>
        <time>2019-02-26T15:59:51Z</time>
      </trkpt>
      <trkpt lat="43.52397" lon="3.89924">
        <ele>1</ele>
        <time>2019-02-26T15:59:54Z</time>
      </trkpt>
      <trkpt lat="43.52356" lon="3.89845">
        <ele>1</ele>
        <time>2019-02-26T16:00:10Z</time>
      </trkpt>
      <trkpt lat="43.52331" lon="3.89808">
        <ele>1</ele>
        <time>2019-02-26T16:00:17Z</time>
      </trkpt>
      <trkpt lat="43.52239" lon="3.8964">
        <ele>1</ele>
        <time>2019-02-26T16:00:48Z</time>
      </trkpt>
      <trkpt lat="43.52081" lon="3.89347">
        <ele>1</ele>
        <time>2019-02-26T16:01:39Z</time>
      </trkpt>
      <trkpt lat="43.52038" lon="3.89269">
        <ele>1</ele>
        <time>2019-02-26T16:01:53Z</time>
      </trkpt>
      <trkpt lat="43.51979" lon="3.89139">
        <ele>1</ele>
        <time>2019-02-26T16:02:15Z</time>
      </trkpt>
      <trkpt lat="43.5191" lon="3.88956">
        <ele>1</ele>
        <time>2019-02-26T16:02:44Z</time>
      </trkpt>
      <trkpt lat="43.51872" lon="3.88857">
        <ele>2</ele>
        <time>2019-02-26T16:03:00Z</time>
      </trkpt>
      <trkpt lat="43.51852" lon="3.88799">
        <ele>1.2</ele>
        <time>2019-02-26T16:03:09Z</time>
      </trkpt>
      <trkpt lat="43.51803" lon="3.88647">
        <ele>1</ele>
        <time>2019-02-26T16:03:32Z</time>
      </trkpt>
      <trkpt lat="43.51773" lon="3.88488">
        <ele>1</ele>
        <time>2019-02-26T16:03:54Z</time>
      </trkpt>
      <trkpt lat="43.51733" lon="3.88286">
        <time>2019-02-26T16:04:22Z</time>
      </trkpt>
      <trkpt lat="43.51676" lon="3.88097">
        <ele>1</ele>
        <time>2019-02-26T16:04:50Z</time>
      </trkpt>
      <trkpt lat="43.51634" lon="3.8801">
        <ele>1</ele>
        <time>2019-02-26T16:07:20Z</time>
      </trkpt>
      <trkpt lat="43.51585" lon="3.87919">
        <ele>1</ele>
        <time>2019-02-26T16:07:36Z</time>
      </trkpt>
      <trkpt lat="43.51565" lon="3.87894">
        <ele>1.1</ele>
        <time>2019-02-26T16:07:41Z</time>
      </trkpt>
      <trkpt lat="43.51482" lon="3.8778">
        <ele>2</ele>
        <time>2019-02-26T16:08:05Z</time>
      </trkpt>
      <trkpt lat="43.51288" lon="3.87524">
        <ele>1</ele>
        <time>2019-02-26T16:08:54Z</time>
      </trkpt>
      <trkpt lat="43.51282" lon="3.87513">
        <ele>1</ele>
        <time>2019-02-26T16:08:56Z</time>
      </trkpt>
      <trkpt lat="43.51182" lon="3.87383">
        <ele>1</ele>
        <time>2019-02-26T16:09:21Z</time>
      </trkpt>
      <trkpt lat="43.51094" lon="3.87268">
        <ele>1</ele>
        <time>2019-02-26T16:09:43Z</time>
      </trkpt>
      <trkpt lat="43.50992" lon="3.87137">
        <ele>1</ele>
        <time>2019-02-26T16:10:09Z</time>
      </trkpt>
      <trkpt lat="43.50924" lon="3.87045">
        <ele>1</ele>
        <time>2019-02-26T16:10:26Z</time>
      </trkpt>
      <trkpt lat="43.50879" lon="3.8698">
        <ele>1</ele>
        <time>2019-02-26T16:10:38Z</time>
      </trkpt>
      <trkpt lat="43.50833" lon="3.86917">
        <ele>1</ele>
        <time>2019-02-26T16:10:51Z</time>
      </trkpt>
      <trkpt lat="43.50618" lon="3.86643">
        <time>2019-02-26T16:11:45Z</time>
      </trkpt>
      <trkpt lat="43.50495" lon="3.86488">
        <ele>1</ele>
        <time>2019-02-26T16:12:16Z</time>
      </trkpt>
      <trkpt lat="43.50478" lon="3.86463">
        <ele>1</ele>
        <time>2019-02-26T16:12:21Z</time>
      </trkpt>
      <trkpt lat="43.504" lon="3.86361">
        <ele>1</ele>
        <time>2019-02-26T16:12:44Z</time>
      </trkpt>
      <trkpt lat="43.50277" lon="3.86204">
        <ele>1</ele>
        <time>2019-02-26T16:13:25Z</time>
      </trkpt>
      <trkpt lat="43.50101" lon="3.85976">
        <ele>1</ele>
        <time>2019-02-26T16:14:13Z</time>
      </trkpt>
      <trkpt lat="43.50094" lon="3.85968">
        <ele>1</ele>
        <time>2019-02-26T16:14:15Z</time>
      </trkpt>
      <trkpt lat="43.50018" lon="3.85867">
        <ele>1</ele>
        <time>2019-02-26T16:14:39Z</time>
      </trkpt>
      <trkpt lat="43.49976" lon="3.85813">
        <ele>1</ele>
        <time>2019-02-26T16:14:50Z</time>
      </trkpt>
      <trkpt lat="43.4989" lon="3.85706">
        <ele>2</ele>
        <time>2019-02-26T16:15:13Z</time>
      </trkpt>
      <trkpt lat="43.49754" lon="3.85527">
        <ele>1</ele>
        <time>2019-02-26T16:15:47Z</time>
      </trkpt>
      <trkpt lat="43.49693" lon="3.85448">
        <ele>1</ele>
        <time>2019-02-26T16:16:02Z</time>
      </trkpt>
      <trkpt lat="43.49686" lon="3.85437">
        <ele>1</ele>
        <time>2019-02-26T16:16:04Z</time>
      </trkpt>
      <trkpt lat="43.49633" lon="3.85366">
        <ele>2</ele>
        <time>2019-02-26T16:16:18Z</time>
      </trkpt>
      <trkpt lat="43.49618" lon="3.85351">
        <ele>1</ele>
        <time>2019-02-26T16:16:22Z</time>
      </trkpt>
      <trkpt lat="43.49504" lon="3.85201">
        <ele>1</ele>
        <time>2019-02-26T16:16:52Z</time>
      </trkpt>
      <trkpt lat="43.49291" lon="3.84928">
        <ele>1</ele>
        <time>2019-02-26T16:17:46Z</time>
      </trkpt>
      <trkpt lat="43.49205" lon="3.84812">
        <ele>1</ele>
        <time>2019-02-26T16:18:10Z</time>
      </trkpt>
      <trkpt lat="43.49178" lon="3.84782">
        <ele>1</ele>
        <time>2019-02-26T16:18:25Z</time>
      </trkpt>
      <trkpt lat="43.49038" lon="3.84634">
        <time>2019-02-26T16:19:02Z</time>
      </trkpt>
      <trkpt lat="43.48921" lon="3.84503">
        <ele>1</ele>
        <time>2019-02-26T16:19:31Z</time>
      </trkpt>
      <trkpt lat="43.4881" lon="3.84384">
        <ele>1</ele>
        <time>2019-02-26T16:19:58Z</time>
      </trkpt>
      <trkpt lat="43.48575" lon="3.84127">
        <ele>1</ele>
        <time>2019-02-26T16:20:53Z</time>
      </trkpt>
      <trkpt lat="43.48567" lon="3.84116">
        <ele>1</ele>
        <time>2019-02-26T16:20:55Z</time>
      </trkpt>
      <trkpt lat="43.48445" lon="3.83978">
        <ele>1</ele>
        <time>2019-02-26T16:21:24Z</time>
      </trkpt>
      <trkpt lat="43.48324" lon="3.8384">
        <ele>1</ele>
        <time>2019-02-26T16:21:53Z</time>
      </trkpt>
      <trkpt lat="43.48205" lon="3.8371">
        <ele>1</ele>
        <time>2019-02-26T16:22:21Z</time>
      </trkpt>
      <trkpt lat="43.48067" lon="3.83557">
        <ele>1</ele>
        <time>2019-02-26T16:22:54Z</time>
      </trkpt>
      <trkpt lat="43.4785" lon="3.83319">
        <ele>1</ele>
        <time>2019-02-26T16:24:03Z</time>
      </trkpt>
      <trkpt lat="43.47801" lon="3.83269">
        <ele>1</ele>
        <time>2019-02-26T16:24:17Z</time>
      </trkpt>
      <trkpt lat="43.47752" lon="3.83209">
        <time>2019-02-26T16:24:31Z</time>
      </trkpt>
      <trkpt lat="43.47647" lon="3.83097">
        <ele>1</ele>
        <time>2019-02-26T16:24:58Z</time>
      </trkpt>
      <trkpt lat="43.47593" lon="3.83037">
        <ele>1</ele>
        <time>2019-02-26T16:25:12Z</time>
      </trkpt>
      <trkpt lat="43.47532" lon="3.82971">
        <ele>1</ele>
        <time>2019-02-26T16:25:28Z</time>
      </trkpt>
      <trkpt lat="43.47464" lon="3.82893">
        <ele>0.212403</ele>
        <time>2019-02-26T16:25:46Z</time>
      </trkpt>
      <trkpt lat="43.47387" lon="3.82812">
        <ele>1.2</ele>
        <time>2019-02-26T16:26:06Z</time>
      </trkpt>
      <trkpt lat="43.47379" lon="3.82803">
        <ele>1</ele>
        <time>2019-02-26T16:26:08Z</time>
      </trkpt>
      <trkpt lat="43.47372" lon="3.82793">
        <ele>1</ele>
        <time>2019-02-26T16:26:10Z</time>
      </trkpt>
      <trkpt lat="43.4735" lon="3.82765">
        <ele>1.2</ele>
        <time>2019-02-26T16:26:16Z</time>
      </trkpt>
      <trkpt lat="43.47323" lon="3.82746">
        <ele>1</ele>
        <time>2019-02-26T16:26:22Z</time>
      </trkpt>
      <trkpt lat="43.47196" lon="3.82602">
        <ele>2</ele>
        <time>2019-02-26T16:26:53Z</time>
      </trkpt>
      <trkpt lat="43.46894" lon="3.82269">
        <ele>1</ele>
        <time>2019-02-26T16:28:05Z</time>
      </trkpt>
      <trkpt lat="43.46855" lon="3.82231">
        <ele>1</ele>
        <time>2019-02-26T16:28:14Z</time>
      </trkpt>
      <trkpt lat="43.46847" lon="3.82221">
        <ele>1</ele>
        <time>2019-02-26T16:28:16Z</time>
      </trkpt>
      <trkpt lat="43.46838" lon="3.82213">
        <ele>1</ele>
        <time>2019-02-26T16:28:18Z</time>
      </trkpt>
      <trkpt lat="43.4673" lon="3.82097">
        <ele>1.5</ele>
        <time>2019-02-26T16:28:44Z</time>
      </trkpt>
      <trkpt lat="43.46524" lon="3.81887">
        <ele>2</ele>
        <time>2019-02-26T16:29:34Z</time>
      </trkpt>
      <trkpt lat="43.46461" lon="3.81829">
        <ele>0.055</ele>
        <time>2019-02-26T16:29:54Z</time>
      </trkpt>
      <trkpt lat="43.4643" lon="3.81815">
        <ele>0.735</ele>
        <time>2019-02-26T16:30:08Z</time>
      </trkpt>
      <trkpt lat="43.46407" lon="3.81839">
        <ele>1</ele>
        <time>2019-02-26T16:30:19Z</time>
      </trkpt>
      <trkpt lat="43.46383" lon="3.81866">
        <ele>1</ele>
        <time>2019-02-26T16:30:26Z</time>
      </trkpt>
      <trkpt lat="43.46311" lon="3.81936">
        <ele>1</ele>
        <time>2019-02-26T16:30:47Z</time>
      </trkpt>
      <trkpt lat="43.46275" lon="3.81948">
        <ele>1</ele>
        <time>2019-02-26T16:33:24Z</time>
      </trkpt>
      <trkpt lat="43.46193" lon="3.81965">
        <ele>1</ele>
        <time>2019-02-26T16:33:44Z</time>
      </trkpt>
      <trkpt lat="43.46055" lon="3.8192">
        <ele>1</ele>
        <time>2019-02-26T16:34:11Z</time>
      </trkpt>
      <trkpt lat="43.45956" lon="3.81813">
        <ele>0.733628</ele>
        <time>2019-02-26T16:34:34Z</time>
      </trkpt>
      <trkpt lat="43.45852" lon="3.8166">
        <ele>1</ele>
        <time>2019-02-26T16:35:02Z</time>
      </trkpt>
      <trkpt lat="43.4575" lon="3.81512">
        <ele>0.822075</ele>
        <time>2019-02-26T16:35:29Z</time>
      </trkpt>
      <trkpt lat="43.45644" lon="3.81325">
        <ele>2</ele>
        <time>2019-02-26T16:36:00Z</time>
      </trkpt>
      <trkpt lat="43.45576" lon="3.81189">
        <ele>1.8</ele>
        <time>2019-02-26T16:36:22Z</time>
      </trkpt>
      <trkpt lat="43.45549" lon="3.81136">
        <ele>0.090594</ele>
        <time>2019-02-26T16:36:31Z</time>
      </trkpt>
      <trkpt lat="43.45538" lon="3.8112">
        <ele>0.338175</ele>
        <time>2019-02-26T16:36:35Z</time>
      </trkpt>
      <trkpt lat="43.45517" lon="3.81073">
        <ele>0.598772</ele>
        <time>2019-02-26T16:36:44Z</time>
      </trkpt>
      <trkpt lat="43.454" lon="3.80836">
        <ele>0.9614</ele>
        <time>2019-02-26T16:37:22Z</time>
      </trkpt>
      <trkpt lat="43.45388" lon="3.80815">
        <ele>0.6875</ele>
        <time>2019-02-26T16:37:26Z</time>
      </trkpt>
      <trkpt lat="43.45292" lon="3.80619">
        <ele>0.50645</ele>
        <time>2019-02-26T16:37:56Z</time>
      </trkpt>
      <trkpt lat="43.45203" lon="3.80429">
        <ele>0.5014</ele>
        <time>2019-02-26T16:38:23Z</time>
      </trkpt>
      <trkpt lat="43.45114" lon="3.80243">
        <ele>0.500162</ele>
        <time>2019-02-26T16:38:50Z</time>
      </trkpt>
      <trkpt lat="43.45022" lon="3.80044">
        <ele>0.534925</ele>
        <time>2019-02-26T16:39:19Z</time>
      </trkpt>
      <trkpt lat="43.44936" lon="3.79868">
        <ele>0.494925</ele>
        <time>2019-02-26T16:39:45Z</time>
      </trkpt>
      <trkpt lat="43.44901" lon="3.79813">
        <ele>0.786191</ele>
        <time>2019-02-26T16:39:54Z</time>
      </trkpt>
      <trkpt lat="43.44767" lon="3.7968">
        <ele>0.177606</ele>
        <time>2019-02-26T16:40:22Z</time>
      </trkpt>
      <trkpt lat="43.44498" lon="3.79453">
        <ele>0.5381</ele>
        <time>2019-02-26T16:41:15Z</time>
      </trkpt>
      <trkpt lat="43.44409" lon="3.79382">
        <ele>1</ele>
        <time>2019-02-26T16:41:32Z</time>
      </trkpt>
      <trkpt lat="43.44241" lon="3.79222">
        <ele>1</ele>
        <time>2019-02-26T16:42:06Z</time>
      </trkpt>
      <trkpt lat="43.44187" lon="3.79179">
        <ele>1</ele>
        <time>2019-02-26T16:42:25Z</time>
      </trkpt>
      <trkpt lat="43.44139" lon="3.79203">
        <ele>1</ele>
        <time>2019-02-26T16:42:42Z</time>
      </trkpt>
      <trkpt lat="43.44123" lon="3.79198">
        <ele>1</ele>
        <time>2019-02-26T16:42:47Z</time>
      </trkpt>
      <trkpt lat="43.44098" lon="3.79169">
        <ele>0.5425</ele>
        <time>2019-02-26T16:42:56Z</time>
      </trkpt>
      <trkpt lat="43.44111" lon="3.79125">
        <ele>1</ele>
        <time>2019-02-26T16:43:07Z</time>
      </trkpt>
      <trkpt lat="43.44104" lon="3.79045">
        <ele>0.307563</ele>
        <time>2019-02-26T16:43:23Z</time>
      </trkpt>
      <trkpt lat="43.4406" lon="3.78906">
        <ele>1</ele>
        <time>2019-02-26T16:43:44Z</time>
      </trkpt>
      <trkpt lat="43.43975" lon="3.78718">
        <ele>1</ele>
        <time>2019-02-26T16:44:13Z</time>
      </trkpt>
      <trkpt lat="43.43798" lon="3.78333">
        <ele>0.958141</ele>
        <time>2019-02-26T16:45:10Z</time>
      </trkpt>
      <trkpt lat="43.43601" lon="3.77911">
        <ele>0.91225</ele>
        <time>2019-02-26T16:46:09Z</time>
      </trkpt>
      <trkpt lat="43.4359" lon="3.77884">
        <ele>1</ele>
        <time>2019-02-26T16:46:13Z</time>
      </trkpt>
      <trkpt lat="43.43547" lon="3.77827">
        <ele>1</ele>
        <time>2019-02-26T16:46:28Z</time>
      </trkpt>
      <trkpt lat="43.43539" lon="3.77795">
        <ele>1</ele>
        <time>2019-02-26T16:46:36Z</time>
      </trkpt>
      <trkpt lat="43.43546" lon="3.77776">
        <ele>1</ele>
        <time>2019-02-26T16:46:40Z</time>
      </trkpt>
      <trkpt lat="43.43547" lon="3.77751">
        <ele>1</ele>
        <time>2019-02-26T16:46:44Z</time>
      </trkpt>
      <trkpt lat="43.43536" lon="3.77656">
        <ele>0.540213</ele>
        <time>2019-02-26T16:47:00Z</time>
      </trkpt>
      <trkpt lat="43.43523" lon="3.77512">
        <ele>0.975563</ele>
        <time>2019-02-26T16:47:26Z</time>
      </trkpt>
      <trkpt lat="43.43522" lon="3.77457">
        <ele>0.769031</ele>
        <time>2019-02-26T16:47:33Z</time>
      </trkpt>
      <trkpt lat="43.43517" lon="3.77435">
        <ele>0.8725</ele>
        <time>2019-02-26T16:47:36Z</time>
      </trkpt>
      <trkpt lat="43.43523" lon="3.77389">
        <ele>0.77</ele>
        <time>2019-02-26T16:47:43Z</time>
      </trkpt>
      <trkpt lat="43.43532" lon="3.77221">
        <ele>0.61</ele>
        <time>2019-02-26T16:48:08Z</time>
      </trkpt>
      <trkpt lat="43.43531" lon="3.77177">
        <ele>0.64</ele>
        <time>2019-02-26T16:48:16Z</time>
      </trkpt>
      <trkpt lat="43.43514" lon="3.7713">
        <ele>0.6924</ele>
        <time>2019-02-26T16:48:26Z</time>
      </trkpt>
      <trkpt lat="43.43523" lon="3.77103">
        <ele>0.24225</ele>
        <time>2019-02-26T16:48:31Z</time>
      </trkpt>
      <trkpt lat="43.43529" lon="3.77094">
        <ele>0.088125</ele>
        <time>2019-02-26T16:48:33Z</time>
      </trkpt>
      <trkpt lat="43.43542" lon="3.77055">
        <ele>1</ele>
        <time>2019-02-26T16:48:39Z</time>
      </trkpt>
      <trkpt lat="43.43558" lon="3.76802">
        <ele>1</ele>
        <time>2019-02-26T16:49:10Z</time>
      </trkpt>
      <trkpt lat="43.43571" lon="3.7653">
        <ele>1</ele>
        <time>2019-02-26T16:49:46Z</time>
      </trkpt>
      <trkpt lat="43.43576" lon="3.76338">
        <ele>0.135375</ele>
        <time>2019-02-26T16:50:13Z</time>
      </trkpt>
      <trkpt lat="43.43579" lon="3.76279">
        <ele>0.85</ele>
        <time>2019-02-26T16:50:22Z</time>
      </trkpt>
      <trkpt lat="43.43593" lon="3.76268">
        <ele>0.5375</ele>
        <time>2019-02-26T16:50:30Z</time>
      </trkpt>
      <trkpt lat="43.43596" lon="3.76249">
        <ele>0.47</ele>
        <time>2019-02-26T16:50:46Z</time>
      </trkpt>
      <trkpt lat="43.43601" lon="3.76235">
        <ele>0.3575</ele>
        <time>2019-02-26T16:50:55Z</time>
      </trkpt>
      <trkpt lat="43.43606" lon="3.76218">
        <ele>0.333225</ele>
        <time>2019-02-26T16:51:00Z</time>
      </trkpt>
      <trkpt lat="43.4364" lon="3.76239">
        <ele>2.1</ele>
        <time>2019-02-26T16:51:12Z</time>
      </trkpt>
      <trkpt lat="43.43665" lon="3.76306">
        <ele>2.2</ele>
        <time>2019-02-26T16:51:27Z</time>
      </trkpt>
      <trkpt lat="43.43658" lon="3.76345">
        <ele>2.3</ele>
        <time>2019-02-26T16:51:33Z</time>
      </trkpt>
      <trkpt lat="43.4364" lon="3.76385">
        <ele>1.2</ele>
        <time>2019-02-26T16:51:40Z</time>
      </trkpt>
      <trkpt lat="43.43625" lon="3.76359">
        <ele>2.6</ele>
        <time>2019-02-26T16:51:48Z</time>
      </trkpt>
      <trkpt lat="43.4363" lon="3.76347">
        <ele>3</ele>
        <time>2019-02-26T16:51:50Z</time>
      </trkpt>
      <trkpt lat="43.43659" lon="3.76287">
        <ele>3.4</ele>
        <time>2019-02-26T16:52:03Z</time>
      </trkpt>
      <trkpt lat="43.43722" lon="3.76172">
        <ele>0.8925</ele>
        <time>2019-02-26T16:52:31Z</time>
      </trkpt>
      <trkpt lat="43.43762" lon="3.7616">
        <ele>1</ele>
        <time>2019-02-26T16:52:59Z</time>
      </trkpt>
      <trkpt lat="43.43772" lon="3.76152">
        <ele>1</ele>
        <time>2019-02-26T16:53:04Z</time>
      </trkpt>
      <trkpt lat="43.43782" lon="3.76138">
        <ele>1</ele>
        <time>2019-02-26T16:53:08Z</time>
      </trkpt>
      <trkpt lat="43.43797" lon="3.76109">
        <ele>1</ele>
        <time>2019-02-26T16:53:15Z</time>
      </trkpt>
      <trkpt lat="43.43803" lon="3.76053">
        <ele>1</ele>
        <time>2019-02-26T16:53:24Z</time>
      </trkpt>
      <trkpt lat="43.43809" lon="3.76048">
        <ele>1</ele>
        <time>2019-02-26T16:53:25Z</time>
      </trkpt>
      <trkpt lat="43.43989" lon="3.75959">
        <ele>1</ele>
        <time>2019-02-26T16:53:51Z</time>
      </trkpt>
      <trkpt lat="43.44032" lon="3.75944">
        <ele>1</ele>
        <time>2019-02-26T16:53:58Z</time>
      </trkpt>
      <trkpt lat="43.44134" lon="3.75904">
        <ele>1.5975</ele>
        <time>2019-02-26T16:54:17Z</time>
      </trkpt>
      <trkpt lat="43.44199" lon="3.75885">
        <ele>1</ele>
        <time>2019-02-26T16:54:33Z</time>
      </trkpt>
      <trkpt lat="43.44224" lon="3.75884">
        <ele>1</ele>
        <time>2019-02-26T16:54:38Z</time>
      </trkpt>
      <trkpt lat="43.44344" lon="3.75911">
        <ele>0.9325</ele>
        <time>2019-02-26T16:54:58Z</time>
      </trkpt>
      <trkpt lat="43.444" lon="3.75921">
        <ele>2</ele>
        <time>2019-02-26T16:55:13Z</time>
      </trkpt>
      <trkpt lat="43.44407" lon="3.75918">
        <ele>2</ele>
        <time>2019-02-26T16:55:15Z</time>
      </trkpt>
      <trkpt lat="43.44414" lon="3.75907">
        <ele>1.8</ele>
        <time>2019-02-26T16:55:20Z</time>
      </trkpt>
      <trkpt lat="43.44394" lon="3.75848">
        <ele>0.065487</ele>
        <time>2019-02-26T16:55:34Z</time>
      </trkpt>
      <trkpt lat="43.44403" lon="3.75839">
        <ele>0.210462</ele>
        <time>2019-02-26T16:55:40Z</time>
      </trkpt>
      <trkpt lat="43.44545" lon="3.75841">
        <ele>1.5225</ele>
        <time>2019-02-26T16:56:07Z</time>
      </trkpt>
      <trkpt lat="43.4464" lon="3.75853">
        <ele>2</ele>
        <time>2019-02-26T16:56:24Z</time>
      </trkpt>
      <trkpt lat="43.44675" lon="3.75841">
        <ele>2</ele>
        <time>2019-02-26T16:56:33Z</time>
      </trkpt>
      <trkpt lat="43.44691" lon="3.75764">
        <ele>2.672188</ele>
        <time>2019-02-26T16:56:47Z</time>
      </trkpt>
      <trkpt lat="43.44699" lon="3.75699">
        <ele>2.91</ele>
        <time>2019-02-26T16:57:02Z</time>
      </trkpt>
      <trkpt lat="43.44717" lon="3.75653">
        <ele>3</ele>
        <time>2019-02-26T16:57:13Z</time>
      </trkpt>
      <trkpt lat="43.44736" lon="3.75597">
        <ele>3</ele>
        <time>2019-02-26T16:57:23Z</time>
      </trkpt>
      <trkpt lat="43.44775" lon="3.75548">
        <ele>3.5625</ele>
        <time>2019-02-26T16:57:33Z</time>
      </trkpt>
      <trkpt lat="43.4478" lon="3.75541">
        <ele>3.66</ele>
        <time>2019-02-26T16:57:40Z</time>
      </trkpt>
      <trkpt lat="43.44784" lon="3.75528">
        <ele>3.7475</ele>
        <time>2019-02-26T16:57:49Z</time>
      </trkpt>
      <trkpt lat="43.44806" lon="3.7549">
        <ele>4</ele>
        <time>2019-02-26T16:58:01Z</time>
      </trkpt>
      <trkpt lat="43.44833" lon="3.75453">
        <ele>4</ele>
        <time>2019-02-26T16:58:11Z</time>
      </trkpt>
      <trkpt lat="43.4484" lon="3.75445">
        <ele>4</ele>
        <time>2019-02-26T16:58:17Z</time>
      </trkpt>
      <trkpt lat="43.4486" lon="3.75422">
        <ele>4</ele>
        <time>2019-02-26T16:58:27Z</time>
      </trkpt>
      <trkpt lat="43.4486" lon="3.754">
        <ele>4</ele>
        <time>2019-02-26T16:58:33Z</time>
      </trkpt>
      <trkpt lat="43.44837" lon="3.75361">
        <ele>4</ele>
        <time>2019-02-26T16:58:43Z</time>
      </trkpt>
      <trkpt lat="43.44841" lon="3.75336">
        <ele>4</ele>
        <time>2019-02-26T16:58:49Z</time>
      </trkpt>
      <trkpt lat="43.44886" lon="3.75265">
        <ele>4</ele>
        <time>2019-02-26T16:59:06Z</time>
      </trkpt>
      <trkpt lat="43.44916" lon="3.75225">
        <ele>4.433266</ele>
        <time>2019-02-26T16:59:17Z</time>
      </trkpt>
      <trkpt lat="43.44917" lon="3.7521">
        <ele>4.609459</ele>
        <time>2019-02-26T16:59:21Z</time>
      </trkpt>
      <trkpt lat="43.44901" lon="3.75167">
        <ele>4.756012</ele>
        <time>2019-02-26T16:59:30Z</time>
      </trkpt>
      <trkpt lat="43.44894" lon="3.75141">
        <ele>5.08875</ele>
        <time>2019-02-26T16:59:35Z</time>
      </trkpt>
      <trkpt lat="43.44889" lon="3.75132">
        <ele>5.22785</ele>
        <time>2019-02-26T16:59:37Z</time>
      </trkpt>
      <trkpt lat="43.44884" lon="3.75103">
        <ele>5.58975</ele>
        <time>2019-02-26T16:59:42Z</time>
      </trkpt>
      <trkpt lat="43.44884" lon="3.75084">
        <ele>5.843947</ele>
        <time>2019-02-26T16:59:45Z</time>
      </trkpt>
      <trkpt lat="43.44878" lon="3.75005">
        <ele>7.492275</ele>
        <time>2019-02-26T16:59:57Z</time>
      </trkpt>
      <trkpt lat="43.44877" lon="3.74939">
        <ele>9.01125</ele>
        <time>2019-02-26T17:00:07Z</time>
      </trkpt>
      <trkpt lat="43.44874" lon="3.7488">
        <ele>9.5625</ele>
        <time>2019-02-26T17:00:16Z</time>
      </trkpt>
      <trkpt lat="43.44869" lon="3.74721">
        <ele>10</ele>
        <time>2019-02-26T17:00:39Z</time>
      </trkpt>
      <trkpt lat="43.44874" lon="3.74552">
        <ele>9.675397</ele>
        <time>2019-02-26T17:01:02Z</time>
      </trkpt>
      <trkpt lat="43.44888" lon="3.74403">
        <ele>9.708681</ele>
        <time>2019-02-26T17:01:23Z</time>
      </trkpt>
      <trkpt lat="43.44901" lon="3.74371">
        <ele>9.42625</ele>
        <time>2019-02-26T17:01:29Z</time>
      </trkpt>
      <trkpt lat="43.44932" lon="3.74283">
        <ele>9.005906</ele>
        <time>2019-02-26T17:01:44Z</time>
      </trkpt>
      <trkpt lat="43.44969" lon="3.74133">
        <ele>10.90625</ele>
        <time>2019-02-26T17:02:11Z</time>
      </trkpt>
      <trkpt lat="43.44977" lon="3.74091">
        <ele>11.62</ele>
        <time>2019-02-26T17:02:30Z</time>
      </trkpt>
      <trkpt lat="43.44997" lon="3.74006">
        <ele>12.601016</ele>
        <time>2019-02-26T17:09:22Z</time>
      </trkpt>
      <trkpt lat="43.45031" lon="3.73916">
        <ele>14.555125</ele>
        <time>2019-02-26T17:09:43Z</time>
      </trkpt>
      <trkpt lat="43.45084" lon="3.73818">
        <ele>17.826452</ele>
        <time>2019-02-26T17:10:09Z</time>
      </trkpt>
      <trkpt lat="43.45142" lon="3.73727">
        <ele>21.876194</ele>
        <time>2019-02-26T17:10:35Z</time>
      </trkpt>
      <trkpt lat="43.45178" lon="3.73622">
        <ele>24.8002</ele>
        <time>2019-02-26T17:10:59Z</time>
      </trkpt>
      <trkpt lat="43.45219" lon="3.73516">
        <ele>29.67625</ele>
        <time>2019-02-26T17:11:24Z</time>
      </trkpt>
      <trkpt lat="43.45266" lon="3.73436">
        <ele>31.774778</ele>
        <time>2019-02-26T17:11:46Z</time>
      </trkpt>
      <trkpt lat="43.45311" lon="3.73376">
        <ele>34.572498</ele>
        <time>2019-02-26T17:12:05Z</time>
      </trkpt>
      <trkpt lat="43.45296" lon="3.7334">
        <ele>35.392502</ele>
        <time>2019-02-26T17:12:14Z</time>
      </trkpt>
      <trkpt lat="43.45331" lon="3.73237">
        <ele>38.414001</ele>
        <time>2019-02-26T17:12:39Z</time>
      </trkpt>
      <trkpt lat="43.45352" lon="3.7316">
        <ele>41.330925</ele>
        <time>2019-02-26T17:12:59Z</time>
      </trkpt>
      <trkpt lat="43.45358" lon="3.73099">
        <ele>44.73777</ele>
        <time>2019-02-26T17:13:17Z</time>
      </trkpt>
      <trkpt lat="43.45379" lon="3.7306">
        <ele>49.112938</ele>
        <time>2019-02-26T17:13:33Z</time>
      </trkpt>
      <trkpt lat="43.45395" lon="3.73001">
        <ele>51.786564</ele>
        <time>2019-02-26T17:13:51Z</time>
      </trkpt>
      <trkpt lat="43.45413" lon="3.72912">
        <ele>52.56625</ele>
        <time>2019-02-26T17:14:13Z</time>
      </trkpt>
      <trkpt lat="43.45447" lon="3.72816">
        <ele>54.15937</ele>
        <time>2019-02-26T17:14:34Z</time>
      </trkpt>
      <trkpt lat="43.45475" lon="3.72716">
        <ele>55.994999</ele>
        <time>2019-02-26T17:14:56Z</time>
      </trkpt>
      <trkpt lat="43.45488" lon="3.72661">
        <ele>55.139999</ele>
        <time>2019-02-26T17:15:07Z</time>
      </trkpt>
      <trkpt lat="43.45491" lon="3.7264">
        <ele>54.572502</ele>
        <time>2019-02-26T17:15:11Z</time>
      </trkpt>
      <trkpt lat="43.45498" lon="3.7262">
        <ele>54.80875</ele>
        <time>2019-02-26T17:15:15Z</time>
      </trkpt>
      <trkpt lat="43.45475" lon="3.7253">
        <ele>55.998474</ele>
        <time>2019-02-26T17:15:34Z</time>
      </trkpt>
      <trkpt lat="43.4549" lon="3.72468">
        <ele>59.052502</ele>
        <time>2019-02-26T17:15:49Z</time>
      </trkpt>
      <trkpt lat="43.45486" lon="3.72402">
        <ele>60.843624</ele>
        <time>2019-02-26T17:16:08Z</time>
      </trkpt>
      <trkpt lat="43.4546" lon="3.72328">
        <ele>59.544064</ele>
        <time>2019-02-26T17:16:23Z</time>
      </trkpt>
      <trkpt lat="43.45444" lon="3.72214">
        <ele>61.805557</ele>
        <time>2019-02-26T17:16:45Z</time>
      </trkpt>
      <trkpt lat="43.45459" lon="3.7217">
        <ele>64.215775</ele>
        <time>2019-02-26T17:17:01Z</time>
      </trkpt>
      <trkpt lat="43.45461" lon="3.72105">
        <ele>66.352501</ele>
        <time>2019-02-26T17:17:22Z</time>
      </trkpt>
      <trkpt lat="43.45475" lon="3.72051">
        <ele>70.351997</ele>
        <time>2019-02-26T17:17:44Z</time>
      </trkpt>
      <trkpt lat="43.45475" lon="3.7204">
        <ele>71.023254</ele>
        <time>2019-02-26T17:17:49Z</time>
      </trkpt>
      <trkpt lat="43.45477" lon="3.72027">
        <ele>72.2724</ele>
        <time>2019-02-26T17:17:56Z</time>
      </trkpt>
      <trkpt lat="43.45479" lon="3.71997">
        <ele>74.906715</ele>
        <time>2019-02-26T17:18:11Z</time>
      </trkpt>
      <trkpt lat="43.45444" lon="3.7197">
        <ele>72.288498</ele>
        <time>2019-02-26T17:18:29Z</time>
      </trkpt>
      <trkpt lat="43.45436" lon="3.71967">
        <ele>71.525146</ele>
        <time>2019-02-26T17:18:31Z</time>
      </trkpt>
      <trkpt lat="43.45416" lon="3.71955">
        <ele>69.690125</ele>
        <time>2019-02-26T17:18:36Z</time>
      </trkpt>
      <trkpt lat="43.454" lon="3.71939">
        <ele>68.805862</ele>
        <time>2019-02-26T17:18:40Z</time>
      </trkpt>
      <trkpt lat="43.45383" lon="3.71888">
        <ele>69.150002</ele>
        <time>2019-02-26T17:18:49Z</time>
      </trkpt>
      <trkpt lat="43.4538" lon="3.71842">
        <ele>68.58709</ele>
        <time>2019-02-26T17:18:56Z</time>
      </trkpt>
      <trkpt lat="43.45367" lon="3.71792">
        <ele>65.132202</ele>
        <time>2019-02-26T17:19:10Z</time>
      </trkpt>
      <trkpt lat="43.45322" lon="3.71746">
        <ele>65.857285</ele>
        <time>2019-02-26T17:19:27Z</time>
      </trkpt>
      <trkpt lat="43.45322" lon="3.71699">
        <ele>69.080437</ele>
        <time>2019-02-26T17:19:40Z</time>
      </trkpt>
      <trkpt lat="43.45289" lon="3.71678">
        <ele>67.481247</ele>
        <time>2019-02-26T17:19:50Z</time>
      </trkpt>
      <trkpt lat="43.45247" lon="3.71642">
        <ele>64.426682</ele>
        <time>2019-02-26T17:20:00Z</time>
      </trkpt>
      <trkpt lat="43.45173" lon="3.71576">
        <ele>60.0345</ele>
        <time>2019-02-26T17:20:16Z</time>
      </trkpt>
      <trkpt lat="43.45155" lon="3.71559">
        <ele>59.809681</ele>
        <time>2019-02-26T17:20:20Z</time>
      </trkpt>
      <trkpt lat="43.45099" lon="3.71521">
        <ele>56.958752</ele>
        <time>2019-02-26T17:20:31Z</time>
      </trkpt>
      <trkpt lat="43.45026" lon="3.71446">
        <ele>52.993538</ele>
        <time>2019-02-26T17:20:49Z</time>
      </trkpt>
      <trkpt lat="43.45018" lon="3.7144">
        <ele>52.856628</ele>
        <time>2019-02-26T17:20:51Z</time>
      </trkpt>
      <trkpt lat="43.45009" lon="3.71434">
        <ele>52.556187</ele>
        <time>2019-02-26T17:20:53Z</time>
      </trkpt>
      <trkpt lat="43.44947" lon="3.71382">
        <ele>51.501781</ele>
        <time>2019-02-26T17:21:06Z</time>
      </trkpt>
      <trkpt lat="43.44919" lon="3.71369">
        <ele>50.649189</ele>
        <time>2019-02-26T17:21:11Z</time>
      </trkpt>
      <trkpt lat="43.44888" lon="3.71332">
        <ele>49.401249</ele>
        <time>2019-02-26T17:21:23Z</time>
      </trkpt>
      <trkpt lat="43.44851" lon="3.71318">
        <ele>47.211838</ele>
        <time>2019-02-26T17:21:31Z</time>
      </trkpt>
      <trkpt lat="43.44827" lon="3.71305">
        <ele>46.098724</ele>
        <time>2019-02-26T17:21:36Z</time>
      </trkpt>
      <trkpt lat="43.44798" lon="3.71257">
        <ele>46.666775</ele>
        <time>2019-02-26T17:21:50Z</time>
      </trkpt>
      <trkpt lat="43.44787" lon="3.71247">
        <ele>46.586525</ele>
        <time>2019-02-26T17:21:53Z</time>
      </trkpt>
      <trkpt lat="43.44726" lon="3.7122">
        <ele>45.663151</ele>
        <time>2019-02-26T17:22:10Z</time>
      </trkpt>
      <trkpt lat="43.44687" lon="3.71218">
        <ele>44.196877</ele>
        <time>2019-02-26T17:22:22Z</time>
      </trkpt>
      <trkpt lat="43.44673" lon="3.7121">
        <ele>44.378117</ele>
        <time>2019-02-26T17:22:26Z</time>
      </trkpt>
      <trkpt lat="43.44667" lon="3.712">
        <ele>45.029202</ele>
        <time>2019-02-26T17:22:28Z</time>
      </trkpt>
      <trkpt lat="43.44652" lon="3.71185">
        <ele>44.920002</ele>
        <time>2019-02-26T17:22:32Z</time>
      </trkpt>
      <trkpt lat="43.44626" lon="3.71163">
        <ele>43.869999</ele>
        <time>2019-02-26T17:22:38Z</time>
      </trkpt>
      <trkpt lat="43.44561" lon="3.71009">
        <ele>41.965</ele>
        <time>2019-02-26T17:22:59Z</time>
      </trkpt>
      <trkpt lat="43.44541" lon="3.70947">
        <ele>40.112499</ele>
        <time>2019-02-26T17:23:07Z</time>
      </trkpt>
      <trkpt lat="43.44541" lon="3.70883">
        <ele>39.048748</ele>
        <time>2019-02-26T17:23:16Z</time>
      </trkpt>
      <trkpt lat="43.44548" lon="3.70845">
        <ele>38.617313</ele>
        <time>2019-02-26T17:23:22Z</time>
      </trkpt>
      <trkpt lat="43.44598" lon="3.70774">
        <ele>38.779461</ele>
        <time>2019-02-26T17:24:57Z</time>
      </trkpt>
      <trkpt lat="43.44647" lon="3.70701">
        <ele>39.941689</ele>
        <time>2019-02-26T17:31:16Z</time>
      </trkpt>
      <trkpt lat="43.44735" lon="3.70585">
        <ele>43.840675</ele>
        <time>2019-02-26T17:31:48Z</time>
      </trkpt>
      <trkpt lat="43.44787" lon="3.70502">
        <ele>45.610626</ele>
        <time>2019-02-26T17:32:11Z</time>
      </trkpt>
      <trkpt lat="43.4481" lon="3.70468">
        <ele>46.670559</ele>
        <time>2019-02-26T17:32:20Z</time>
      </trkpt>
      <trkpt lat="43.44887" lon="3.70369">
        <ele>48.421913</ele>
        <time>2019-02-26T17:32:46Z</time>
      </trkpt>
      <trkpt lat="43.44939" lon="3.70298">
        <ele>47.48</ele>
        <time>2019-02-26T17:33:07Z</time>
      </trkpt>
      <trkpt lat="43.44949" lon="3.70275">
        <ele>46.922501</ele>
        <time>2019-02-26T17:33:13Z</time>
      </trkpt>
      <trkpt lat="43.44958" lon="3.70263">
        <ele>46.742077</ele>
        <time>2019-02-26T17:33:17Z</time>
      </trkpt>
      <trkpt lat="43.44956" lon="3.70248">
        <ele>46.221081</ele>
        <time>2019-02-26T17:33:22Z</time>
      </trkpt>
      <trkpt lat="43.44953" lon="3.70245">
        <ele>46.059868</ele>
        <time>2019-02-26T17:33:36Z</time>
      </trkpt>
      <trkpt lat="43.44954" lon="3.70244">
        <ele>46.017536</ele>
        <time>2019-02-26T17:34:11Z</time>
      </trkpt>
    </trkseg>
  </trk>
</gpx>